createdAt,value
2019-05-20T00:00:02.423Z,34.47
2019-05-20T00:02:35.081Z,34.20
2019-05-20T00:05:08.529Z,34.12
2019-05-20T00:07:40.256Z,34.11
2019-05-20T00:10:14.891Z,34.11
2019-05-20T00:12:46.923Z,34.13
2019-05-20T00:15:19.877Z,34.20
2019-05-20T00:17:52.516Z,34.16
2019-05-20T00:20:25.303Z,34.14
2019-05-20T00:22:57.369Z,34.22
2019-05-20T00:25:29.708Z,34.18
2019-05-20T00:28:02.555Z,34.23
2019-05-20T00:30:35.446Z,34.26
2019-05-20T00:33:08.025Z,34.37
2019-05-20T00:35:42.670Z,34.30
2019-05-20T00:38:14.608Z,34.29
2019-05-20T00:40:47.598Z,34.36
2019-05-20T00:43:25.211Z,34.28
2019-05-20T00:45:58.614Z,34.09
2019-05-20T00:48:31.703Z,34.00
2019-05-20T00:51:04.365Z,34.09
2019-05-20T00:53:40.494Z,33.99
2019-05-20T00:56:15.180Z,34.03
2019-05-20T00:58:48.849Z,33.99
2019-05-20T01:01:21.351Z,34.06
2019-05-20T01:03:53.893Z,34.13
2019-05-20T01:06:25.965Z,34.23
2019-05-20T01:08:58.905Z,34.34
2019-05-20T01:11:34.962Z,34.40
2019-05-20T01:14:08.388Z,34.50
2019-05-20T01:16:40.969Z,34.50
2019-05-20T01:19:14.096Z,34.45
2019-05-20T01:21:49.560Z,34.51
2019-05-20T01:24:26.221Z,34.55
2019-05-20T01:26:58.491Z,34.63
2019-05-20T01:29:31.172Z,34.63
2019-05-20T01:32:05.293Z,34.72
2019-05-20T01:34:41.085Z,34.73
2019-05-20T01:37:16.174Z,34.72
2019-05-20T01:39:48.661Z,34.76
2019-05-20T01:42:22.440Z,34.67
2019-05-20T01:44:54.943Z,34.73
2019-05-20T01:47:27.537Z,34.60
2019-05-20T01:50:00.173Z,34.63
2019-05-20T01:52:34.014Z,34.67
2019-05-20T01:55:09.053Z,34.77
2019-05-20T01:57:41.716Z,34.79
2019-05-20T02:00:14.655Z,34.58
2019-05-20T02:02:47.050Z,34.37
2019-05-20T02:05:18.807Z,34.29
2019-05-20T02:07:51.051Z,34.34
2019-05-20T02:10:23.497Z,34.21
2019-05-20T02:12:55.986Z,34.13
2019-05-20T02:15:30.556Z,34.15
2019-05-20T02:18:03.131Z,34.26
2019-05-20T02:20:35.928Z,34.39
2019-05-20T02:23:09.954Z,34.36
2019-05-20T02:25:46.570Z,34.43
2019-05-20T02:28:17.149Z,34.38
2019-05-20T02:30:49.413Z,34.54
2019-05-20T02:33:21.642Z,34.60
2019-05-20T02:35:54.592Z,34.66
2019-05-20T02:38:27.354Z,34.62
2019-05-20T02:40:59.544Z,34.62
2019-05-20T02:43:31.635Z,34.47
2019-05-20T02:46:04.236Z,34.54
2019-05-20T02:48:37.678Z,34.55
2019-05-20T02:51:09.702Z,34.45
2019-05-20T02:53:42.588Z,34.55
2019-05-20T02:56:18.834Z,34.46
2019-05-20T02:58:51.756Z,34.40
2019-05-20T03:01:23.824Z,34.46
2019-05-20T03:04:10.609Z,34.54
2019-05-20T03:06:33.045Z,34.55
2019-05-20T14:45:57.168Z,33.91
2019-05-20T14:48:29.855Z,33.71
2019-05-20T14:51:03.347Z,33.65
2019-05-20T14:53:48.054Z,33.62
2019-05-20T14:56:27.966Z,33.66
2019-05-20T14:59:07.037Z,33.71
2019-05-20T15:01:47.318Z,33.79
2019-05-20T15:04:20.735Z,33.83
2019-05-20T15:06:52.900Z,33.89
2019-05-20T15:09:25.188Z,33.92
2019-05-20T15:11:57.043Z,33.97
2019-05-20T15:14:33.835Z,33.93
2019-05-20T15:17:14.796Z,33.93
2019-05-20T15:19:55.293Z,33.95
2019-05-20T15:22:33.938Z,34.01
2019-05-20T15:25:13.709Z,34.06
2019-05-20T15:27:49.587Z,34.01
2019-05-20T15:30:21.507Z,34.01
2019-05-20T15:32:55.038Z,33.95
2019-05-20T15:35:28.258Z,33.99
2019-05-20T15:38:01.476Z,33.91
2019-05-20T15:40:33.676Z,33.93
2019-05-20T15:43:07.326Z,33.90
2019-05-20T15:45:47.055Z,33.89
2019-05-20T15:48:25.002Z,33.90
2019-05-20T15:50:57.032Z,33.88
2019-05-20T15:53:30.232Z,33.85
2019-05-20T15:56:03.669Z,33.86
2019-05-20T15:58:36.291Z,33.87
2019-05-20T16:01:09.386Z,33.82
2019-05-20T16:03:41.788Z,33.82
2019-05-20T16:06:15.331Z,33.88
2019-05-20T16:08:48.062Z,33.80
2019-05-20T16:11:20.705Z,33.84
2019-05-20T16:14:00.800Z,33.83
2019-05-20T16:16:33.570Z,33.84
2019-05-20T16:19:06.540Z,33.74
2019-05-20T16:21:47.847Z,33.81
2019-05-20T16:24:28.803Z,33.77
2019-05-20T16:27:02.131Z,33.83
2019-05-20T16:29:35.081Z,33.78
2019-05-20T16:32:08.101Z,33.88
2019-05-20T16:34:41.750Z,33.83
2019-05-20T16:37:15.099Z,33.90
2019-05-20T16:39:48.395Z,33.83
2019-05-20T16:42:21.720Z,33.82
2019-05-20T16:44:54.137Z,33.75
2019-05-20T16:47:27.205Z,33.80
2019-05-20T16:50:00.081Z,33.79
2019-05-20T16:52:38.514Z,33.85
2019-05-20T16:55:19.919Z,33.76
2019-05-20T16:57:52.087Z,33.75
2019-05-20T17:00:32.011Z,33.80
2019-05-20T17:03:02.369Z,33.75
2019-05-20T17:05:47.873Z,33.72
2019-05-20T17:08:26.929Z,33.71
2019-05-20T17:11:00.035Z,33.71
2019-05-20T17:13:32.807Z,33.73
2019-05-20T17:16:14.096Z,33.76
2019-05-20T17:18:49.838Z,33.74
2019-05-20T17:21:23.216Z,33.77
2019-05-20T17:23:55.924Z,33.75
2019-05-20T17:26:31.029Z,33.74
2019-05-20T17:29:06.214Z,33.77
2019-05-20T17:31:45.842Z,33.74
2019-05-20T17:34:19.341Z,33.70
2019-05-20T17:36:52.405Z,33.74
2019-05-20T17:39:25.413Z,33.68
2019-05-20T17:41:58.136Z,33.68
2019-05-20T17:44:31.034Z,33.61
2019-05-20T17:47:05.725Z,33.70
2019-05-20T17:49:45.858Z,33.68
2019-05-20T17:52:24.791Z,33.66
2019-05-20T17:54:57.150Z,33.68
2019-05-20T17:57:38.197Z,33.68
2019-05-20T18:00:13.915Z,33.72
2019-05-20T18:02:46.914Z,33.67
2019-05-20T18:05:20.243Z,33.65
2019-05-20T18:07:53.694Z,33.65
2019-05-20T18:10:27.006Z,33.66
2019-05-20T18:13:01.596Z,33.67
2019-05-20T18:15:37.930Z,33.66
2019-05-20T18:18:11.206Z,33.55
2019-05-20T18:20:46.179Z,33.58
2019-05-20T18:23:24.803Z,33.66
2019-05-20T18:25:57.484Z,33.63
2019-05-20T18:28:35.094Z,33.69
2019-05-20T18:31:07.828Z,33.64
2019-05-20T18:33:40.356Z,33.59
2019-05-20T18:36:12.734Z,33.57
2019-05-20T18:38:44.964Z,33.54
2019-05-20T18:41:17.572Z,33.55
2019-05-20T18:43:51.331Z,33.54
2019-05-20T18:46:24.255Z,33.58
2019-05-20T18:48:57.461Z,33.57
2019-05-20T18:51:31.149Z,33.53
2019-05-20T18:54:14.923Z,33.54
2019-05-20T18:56:47.772Z,33.55
2019-05-20T18:59:20.661Z,33.54
2019-05-20T19:02:04.947Z,33.56
2019-05-20T19:04:30.619Z,33.48
2019-05-20T19:07:02.986Z,33.43
2019-05-20T19:09:43.015Z,33.45
2019-05-20T19:12:17.121Z,33.32
2019-05-20T19:14:50.279Z,33.37
2019-05-20T19:17:23.018Z,33.34
2019-05-20T19:20:02.654Z,33.38
2019-05-20T19:22:43.066Z,33.39
2019-05-20T19:25:16.957Z,33.33
2019-05-20T19:27:49.573Z,33.30
2019-05-20T19:30:23.394Z,33.37
2019-05-20T19:32:56.300Z,33.29
2019-05-20T19:35:29.450Z,33.27
2019-05-20T19:38:02.419Z,33.29
2019-05-20T19:40:41.245Z,33.39
2019-05-20T19:43:21.275Z,33.32
2019-05-20T19:45:54.776Z,33.33
2019-05-20T19:48:34.998Z,33.33
2019-05-20T19:51:07.663Z,33.43
2019-05-20T19:53:40.881Z,33.44
2019-05-20T19:56:13.762Z,33.47
2019-05-20T19:58:54.134Z,33.50
2019-05-20T20:01:26.929Z,33.42
2019-05-20T20:04:02.511Z,33.40
2019-05-20T20:06:35.235Z,33.36
2019-05-20T20:09:09.727Z,33.38
2019-05-20T20:11:42.957Z,33.37
2019-05-20T20:14:15.227Z,33.40
2019-05-20T20:16:47.429Z,33.46
2019-05-20T20:19:20.432Z,33.36
2019-05-20T20:21:59.771Z,33.39
2019-05-20T20:24:32.277Z,33.37
2019-05-20T20:27:04.940Z,33.34
2019-05-20T20:29:49.811Z,33.32
2019-05-20T20:32:36.673Z,33.37
2019-05-20T20:34:57.050Z,33.34
2019-05-20T20:37:36.750Z,33.37
2019-05-20T20:40:09.362Z,33.35
2019-05-20T20:42:42.384Z,33.29
2019-05-20T20:45:15.674Z,33.39
2019-05-20T20:47:48.797Z,33.32
2019-05-20T20:50:28.042Z,33.30
2019-05-20T20:53:01.080Z,33.29
2019-05-20T20:55:35.467Z,33.21
2019-05-20T20:58:08.295Z,33.33
2019-05-20T21:00:41.726Z,33.29
2019-05-20T21:03:21.795Z,33.50
2019-05-20T21:05:54.613Z,33.45
2019-05-20T21:08:29.000Z,33.50
2019-05-20T21:11:02.602Z,33.39
2019-05-20T21:13:37.326Z,33.49
2019-05-20T21:16:11.199Z,33.52
2019-05-20T21:18:44.387Z,33.41
2019-05-20T21:21:16.700Z,33.59
2019-05-20T21:23:49.596Z,33.41
2019-05-20T21:26:28.842Z,33.50
2019-05-20T21:29:01.845Z,33.43
2019-05-20T21:31:41.048Z,33.39
2019-05-20T21:34:21.709Z,33.35
2019-05-20T21:36:54.883Z,33.33
2019-05-20T21:39:27.588Z,33.41
2019-05-20T21:42:00.712Z,33.29
2019-05-20T21:44:33.860Z,33.24
2019-05-20T21:47:06.897Z,33.08
2019-05-20T21:49:45.818Z,33.18
2019-05-20T21:52:18.721Z,33.16
2019-05-20T21:54:57.895Z,33.24
2019-05-20T21:57:30.480Z,33.20
2019-05-20T22:00:02.974Z,33.12
2019-05-20T22:02:37.470Z,33.10
2019-05-20T22:05:11.092Z,32.94
2019-05-20T22:07:47.191Z,33.27
2019-05-20T22:10:20.238Z,33.21
2019-05-20T22:12:54.809Z,33.21
2019-05-20T22:18:25.670Z,33.20
2019-05-20T22:20:59.839Z,33.35
2019-05-20T22:23:33.782Z,33.35
2019-05-20T22:26:07.019Z,33.48
2019-05-20T22:28:40.079Z,33.35
2019-05-20T22:31:20.623Z,33.47
2019-05-20T22:34:00.872Z,33.37
2019-05-20T22:36:33.632Z,33.43
2019-05-20T22:39:08.536Z,33.27
2019-05-20T22:41:47.913Z,33.12
2019-05-20T22:44:20.870Z,33.14
